createdAt,value
2018-12-30T00:02:33.881Z,7.90
2018-12-30T00:05:15.260Z,8.00
2018-12-30T00:07:56.314Z,7.90
2018-12-30T00:10:36.728Z,8.00
2018-12-30T00:13:17.117Z,8.00
2018-12-30T00:15:57.833Z,8.00
2018-12-30T00:18:38.428Z,8.00
2018-12-30T00:21:19.200Z,7.80
2018-12-30T00:23:59.702Z,7.80
2018-12-30T00:26:40.442Z,7.80
2018-12-30T00:29:20.741Z,7.70
2018-12-30T00:35:14.317Z,7.80
2018-12-30T00:37:55.253Z,7.60
2018-12-30T00:40:36.624Z,7.70
2018-12-30T00:43:17.430Z,7.50
2018-12-30T00:45:58.154Z,7.40
2018-12-30T00:48:38.917Z,7.40
2018-12-30T00:51:19.418Z,7.20
2018-12-30T00:54:00.562Z,7.20
2018-12-30T00:56:41.381Z,7.20
2018-12-30T00:59:21.989Z,7.20
2018-12-30T01:02:02.706Z,7.20
2018-12-30T01:04:43.221Z,7.10
2018-12-30T01:07:24.894Z,7.10
2018-12-30T01:10:05.561Z,7.00
2018-12-30T01:12:45.921Z,7.10
2018-12-30T01:15:26.453Z,7.10
2018-12-30T01:18:07.259Z,7.00
2018-12-30T01:20:47.975Z,6.90
2018-12-30T01:23:28.961Z,6.90
2018-12-30T01:26:09.366Z,6.90
2018-12-30T01:28:49.840Z,6.80
2018-12-30T01:31:30.421Z,7.10
2018-12-30T01:34:11.190Z,7.00
2018-12-30T01:36:51.728Z,7.00
2018-12-30T01:39:32.225Z,6.90
2018-12-30T01:42:12.894Z,6.90
2018-12-30T01:44:53.821Z,6.90
2018-12-30T01:47:34.636Z,7.00
2018-12-30T01:50:15.633Z,6.90
2018-12-30T01:52:56.167Z,7.10
2018-12-30T01:55:36.504Z,7.10
2018-12-30T01:58:17.521Z,7.10
2018-12-30T02:00:57.871Z,6.90
2018-12-30T02:03:38.762Z,7.00
2018-12-30T02:06:20.655Z,7.00
2018-12-30T02:09:00.850Z,7.00
2018-12-30T02:11:41.385Z,6.90
2018-12-30T02:14:22.324Z,6.90
2018-12-30T02:17:03.260Z,7.00
2018-12-30T02:19:43.930Z,6.90
2018-12-30T02:22:24.277Z,6.90
2018-12-30T02:25:04.949Z,6.90
2018-12-30T02:27:45.549Z,6.80
2018-12-30T02:30:26.418Z,6.80
2018-12-30T02:33:07.310Z,6.80
2018-12-30T02:35:47.913Z,6.70
2018-12-30T02:38:28.719Z,6.80
2018-12-30T02:41:09.183Z,6.80
2018-12-30T02:43:49.564Z,6.80
2018-12-30T02:46:30.283Z,6.70
2018-12-30T02:49:10.939Z,6.70
2018-12-30T02:51:51.399Z,6.60
2018-12-30T02:54:32.196Z,6.70
2018-12-30T02:57:12.740Z,6.70
2018-12-30T02:59:53.515Z,6.70
2018-12-30T03:02:34.231Z,6.60
2018-12-30T03:05:15.133Z,6.60
2018-12-30T03:07:56.003Z,6.70
2018-12-30T03:10:36.851Z,6.60
2018-12-30T03:13:17.736Z,6.70
2018-12-30T03:15:58.285Z,6.60
2018-12-30T03:18:39.065Z,6.60
2018-12-30T03:21:19.790Z,6.50
2018-12-30T03:24:00.582Z,6.60
2018-12-30T03:26:41.333Z,6.60
2018-12-30T03:29:21.808Z,6.60
2018-12-30T03:32:02.620Z,6.60
2018-12-30T03:34:43.446Z,6.60
2018-12-30T03:37:24.229Z,6.70
2018-12-30T03:40:05.030Z,6.60
2018-12-30T03:42:46.160Z,6.60
2018-12-30T03:45:26.897Z,6.60
2018-12-30T03:48:08.027Z,6.60
2018-12-30T03:50:48.308Z,6.60
2018-12-30T03:53:28.844Z,6.70
2018-12-30T03:56:09.834Z,6.80
2018-12-30T03:58:50.480Z,6.70
2018-12-30T04:01:32.088Z,6.70
2018-12-30T04:04:13.118Z,6.70
2018-12-30T04:06:53.420Z,6.80
2018-12-30T04:09:34.060Z,6.80
2018-12-30T04:12:14.733Z,6.90
2018-12-30T04:14:55.779Z,6.90
2018-12-30T04:17:36.902Z,6.90
2018-12-30T04:20:17.573Z,7.00
2018-12-30T04:22:58.116Z,7.10
2018-12-30T04:25:39.073Z,7.00
2018-12-30T04:28:19.309Z,7.00
2018-12-30T04:30:59.675Z,7.10
2018-12-30T04:33:40.221Z,7.00
2018-12-30T04:36:20.677Z,7.10
2018-12-30T04:39:01.239Z,7.10
2018-12-30T04:41:42.249Z,7.10
2018-12-30T04:44:22.720Z,7.20
2018-12-30T04:47:03.253Z,7.10
2018-12-30T04:49:43.785Z,7.10
2018-12-30T04:52:25.794Z,7.10
2018-12-30T04:55:06.643Z,7.10
2018-12-30T04:57:47.205Z,7.10
2018-12-30T05:00:28.173Z,7.10
2018-12-30T05:03:10.648Z,7.10
2018-12-30T05:05:51.669Z,7.40
2018-12-30T05:08:34.589Z,7.20
2018-12-30T05:11:15.033Z,7.10
2018-12-30T05:13:55.861Z,7.20
2018-12-30T05:16:36.153Z,7.20
2018-12-30T05:19:17.136Z,7.20
2018-12-30T05:21:57.792Z,7.30
2018-12-30T05:24:38.327Z,7.40
2018-12-30T05:30:32.203Z,7.30
2018-12-30T05:36:11.184Z,7.20
2018-12-30T05:38:51.805Z,7.30
2018-12-30T05:41:32.520Z,7.40
2018-12-30T05:44:13.308Z,7.40
2018-12-30T05:46:53.824Z,7.30
2018-12-30T05:49:34.445Z,7.30
2018-12-30T05:52:15.379Z,7.30
2018-12-30T05:54:56.379Z,7.30
2018-12-30T05:57:36.941Z,7.30
2018-12-30T06:00:17.372Z,7.30
2018-12-30T06:02:57.869Z,7.20
2018-12-30T06:05:38.625Z,7.20
2018-12-30T06:08:19.346Z,7.10
2018-12-30T06:11:00.082Z,7.20
2018-12-30T06:13:40.833Z,7.30
2018-12-30T06:16:21.622Z,7.20
2018-12-30T06:19:02.346Z,7.20
2018-12-30T06:21:42.985Z,7.20
2018-12-30T06:24:23.957Z,7.30
2018-12-30T06:27:04.951Z,7.30
2018-12-30T06:29:45.377Z,7.30
2018-12-30T06:32:25.868Z,7.20
2018-12-30T06:35:06.553Z,7.20
2018-12-30T06:37:47.312Z,7.30
2018-12-30T06:43:27.209Z,7.30
2018-12-30T06:46:07.827Z,7.30
2018-12-30T06:48:48.880Z,7.30
2018-12-30T06:51:29.441Z,7.40
2018-12-30T06:54:11.205Z,7.40
2018-12-30T06:56:52.201Z,7.40
2018-12-30T06:59:33.337Z,7.40
2018-12-30T07:02:14.165Z,7.50
2018-12-30T07:04:54.649Z,7.40
2018-12-30T07:07:35.183Z,7.40
2018-12-30T07:10:15.985Z,7.40
2018-12-30T07:12:56.382Z,7.40
2018-12-30T07:15:36.986Z,7.40
2018-12-30T07:18:17.998Z,7.30
2018-12-30T07:20:58.512Z,7.20
2018-12-30T07:23:39.181Z,7.20
2018-12-30T07:26:19.746Z,7.20
2018-12-30T07:29:00.584Z,7.40
2018-12-30T07:31:41.624Z,7.30
2018-12-30T07:34:22.469Z,7.30
2018-12-30T07:37:03.245Z,7.30
2018-12-30T07:39:44.033Z,7.30
2018-12-30T07:42:24.456Z,7.60
2018-12-30T07:45:05.402Z,7.90
2018-12-30T07:47:45.595Z,8.10
2018-12-30T07:50:26.071Z,8.00
2018-12-30T07:53:13.493Z,8.10
2018-12-30T07:55:48.674Z,7.90
2018-12-30T07:58:29.465Z,7.50
2018-12-30T08:01:09.992Z,7.30
2018-12-30T08:03:50.802Z,7.30
2018-12-30T08:06:31.795Z,7.30
2018-12-30T08:09:12.654Z,7.30
2018-12-30T08:11:53.510Z,7.40
2018-12-30T08:14:34.209Z,7.40
2018-12-30T08:17:14.925Z,7.80
2018-12-30T08:19:55.608Z,7.60
2018-12-30T08:22:36.345Z,7.50
2018-12-30T08:25:17.009Z,7.40
2018-12-30T08:27:57.517Z,7.50
2018-12-30T08:30:38.210Z,7.40
2018-12-30T08:33:18.722Z,7.40
2018-12-30T08:35:59.317Z,7.50
2018-12-30T08:38:40.285Z,7.50
2018-12-30T08:41:21.235Z,7.50
2018-12-30T08:44:01.910Z,7.50
2018-12-30T08:46:42.837Z,7.50
2018-12-30T08:49:23.611Z,7.50
2018-12-30T08:55:04.169Z,7.50
2018-12-30T08:57:44.516Z,7.50
2018-12-30T09:00:25.144Z,7.30
2018-12-30T09:03:05.973Z,7.40
2018-12-30T09:11:57.954Z,7.40
2018-12-30T09:14:38.685Z,7.40
2018-12-30T09:17:19.117Z,7.30
2018-12-30T09:19:59.756Z,7.30
2018-12-30T09:22:40.650Z,7.30
2018-12-30T09:25:21.584Z,7.40
2018-12-30T09:28:01.993Z,7.40
2018-12-30T09:30:42.349Z,7.40
2018-12-30T09:33:23.094Z,7.50
2018-12-30T09:36:03.890Z,7.50
2018-12-30T09:38:44.706Z,7.50
2018-12-30T09:47:22.840Z,7.70
2018-12-30T09:50:03.325Z,7.70
2018-12-30T09:52:43.727Z,7.70
2018-12-30T09:55:24.233Z,7.70
2018-12-30T09:58:04.746Z,7.80
2018-12-30T10:00:47.503Z,7.80
2018-12-30T10:03:28.342Z,7.80
2018-12-30T10:06:09.184Z,7.90
2018-12-30T10:08:49.749Z,7.90
2018-12-30T10:11:30.121Z,7.80
2018-12-30T10:14:10.821Z,7.80
2018-12-30T10:16:52.717Z,7.80
2018-12-30T10:19:33.473Z,7.90
2018-12-30T10:22:14.244Z,7.90
2018-12-30T10:24:55.292Z,7.90
2018-12-30T10:27:35.926Z,8.10
2018-12-30T10:30:16.602Z,8.00
2018-12-30T10:32:57.269Z,7.90
2018-12-30T10:35:37.997Z,8.10
2018-12-30T10:38:18.533Z,7.90
2018-12-30T10:40:59.089Z,8.00
2018-12-30T10:43:40.041Z,8.00
2018-12-30T10:46:20.892Z,8.10
2018-12-30T10:49:01.517Z,8.10
2018-12-30T10:51:41.716Z,8.10
2018-12-30T10:54:22.437Z,8.10
2018-12-30T10:57:02.652Z,8.10
2018-12-30T10:59:43.159Z,8.10
2018-12-30T11:02:23.969Z,8.10
2018-12-30T11:05:04.748Z,8.10
2018-12-30T11:07:45.609Z,8.20
2018-12-30T11:10:26.899Z,8.20
2018-12-30T11:13:07.824Z,8.20
2018-12-30T11:15:48.766Z,8.20
2018-12-30T11:18:29.308Z,8.20
2018-12-30T11:21:09.876Z,8.20
2018-12-30T11:23:51.381Z,8.20
2018-12-30T11:26:31.819Z,8.20
2018-12-30T11:29:12.339Z,8.30
2018-12-30T11:31:52.971Z,8.30
2018-12-30T11:34:33.381Z,8.30
2018-12-30T11:37:14.258Z,8.30
2018-12-30T11:42:53.165Z,8.30
2018-12-30T11:45:33.673Z,8.40
2018-12-30T11:48:14.365Z,8.40
2018-12-30T11:50:54.944Z,8.40
2018-12-30T11:53:35.710Z,8.40
2018-12-30T11:56:16.440Z,8.40
2018-12-30T11:58:57.521Z,8.50
2018-12-30T12:01:38.108Z,8.50
2018-12-30T12:04:18.500Z,8.60
2018-12-30T12:06:59.161Z,8.50
2018-12-30T12:09:39.720Z,8.60
2018-12-30T12:12:20.196Z,8.60
2018-12-30T12:15:00.509Z,8.60
2018-12-30T12:17:41.037Z,8.50
2018-12-30T12:20:21.753Z,8.60
2018-12-30T12:23:02.745Z,8.60
2018-12-30T12:25:43.461Z,8.50
2018-12-30T12:28:24.361Z,8.40
2018-12-30T12:31:04.728Z,8.40
2018-12-30T12:33:45.413Z,8.40
2018-12-30T12:36:26.221Z,8.40
2018-12-30T12:39:07.148Z,8.50
2018-12-30T12:41:47.681Z,8.40
2018-12-30T12:44:28.246Z,8.40
2018-12-30T12:47:08.720Z,8.30
2018-12-30T12:49:49.253Z,8.30
2018-12-30T12:52:29.945Z,8.30
2018-12-30T12:55:10.607Z,8.30
2018-12-30T12:57:51.005Z,8.40
2018-12-30T13:00:33.108Z,8.40
2018-12-30T13:03:13.312Z,8.40
2018-12-30T13:05:54.240Z,8.40
2018-12-30T13:08:34.749Z,8.40
2018-12-30T13:11:15.873Z,8.40
2018-12-30T13:13:56.337Z,8.40
2018-12-30T13:16:36.799Z,8.40
2018-12-30T13:19:17.560Z,8.50
2018-12-30T13:21:58.089Z,8.40
2018-12-30T13:24:40.105Z,8.40
2018-12-30T13:27:21.045Z,8.40
2018-12-30T13:30:01.651Z,8.40
2018-12-30T13:32:42.142Z,8.40
2018-12-30T13:35:22.869Z,8.30
2018-12-30T13:38:03.926Z,8.40
2018-12-30T13:40:44.356Z,8.40
2018-12-30T13:43:25.184Z,8.40
2018-12-30T13:46:06.276Z,8.40
2018-12-30T13:48:47.221Z,8.40
2018-12-30T13:51:27.673Z,8.40
2018-12-30T13:54:08.440Z,8.40
2018-12-30T13:56:49.401Z,8.30
2018-12-30T13:59:30.385Z,8.40
2018-12-30T14:02:11.193Z,8.30
2018-12-30T14:04:52.025Z,8.30
2018-12-30T14:07:32.941Z,8.30
2018-12-30T14:10:13.949Z,8.20
2018-12-30T14:12:54.241Z,8.20
2018-12-30T14:15:35.399Z,8.20
2018-12-30T14:18:16.151Z,8.20
2018-12-30T14:20:57.108Z,8.20
2018-12-30T14:23:38.064Z,8.30
2018-12-30T14:26:18.978Z,8.30
2018-12-30T14:28:59.625Z,8.20
2018-12-30T14:34:39.276Z,8.20
2018-12-30T14:37:20.250Z,8.30
2018-12-30T14:40:00.552Z,8.20
2018-12-30T14:42:41.351Z,8.20
2018-12-30T14:45:22.337Z,8.20
2018-12-30T14:48:02.852Z,8.20
2018-12-30T14:50:43.750Z,8.10
2018-12-30T14:53:24.662Z,8.10
2018-12-30T14:56:05.456Z,8.10
2018-12-30T14:58:46.197Z,8.10
2018-12-30T15:01:26.758Z,8.10
2018-12-30T15:04:07.555Z,8.00
2018-12-30T15:06:48.587Z,8.00
2018-12-30T15:09:35.710Z,8.00
2018-12-30T15:12:13.181Z,8.00
2018-12-30T15:14:54.034Z,8.00
2018-12-30T15:17:34.902Z,7.90
2018-12-30T15:20:15.529Z,8.00
2018-12-30T15:22:56.450Z,7.90
2018-12-30T15:25:36.925Z,7.80
2018-12-30T15:28:18.177Z,7.80
2018-12-30T15:30:58.944Z,7.80
2018-12-30T15:33:39.290Z,7.80
2018-12-30T15:36:19.670Z,7.80
2018-12-30T15:39:00.265Z,7.80
2018-12-30T15:41:40.755Z,7.70
2018-12-30T15:44:21.265Z,7.70
2018-12-30T15:47:02.032Z,7.60
2018-12-30T15:49:42.706Z,7.60
2018-12-30T15:52:23.204Z,7.60
2018-12-30T15:55:03.877Z,7.60
2018-12-30T15:57:44.725Z,7.60
2018-12-30T16:00:25.544Z,7.60
2018-12-30T16:03:06.041Z,7.50
2018-12-30T16:05:47.002Z,7.50
2018-12-30T16:08:27.833Z,7.50
2018-12-30T16:11:08.170Z,7.40
2018-12-30T16:13:49.037Z,7.40
2018-12-30T16:16:29.849Z,7.40
2018-12-30T16:19:10.465Z,7.40
2018-12-30T16:21:51.221Z,7.40
2018-12-30T16:24:31.784Z,7.40
2018-12-30T16:27:12.526Z,7.30
2018-12-30T16:29:53.305Z,6.00
2018-12-30T16:32:34.162Z,7.70
2018-12-30T16:35:14.908Z,8.60
2018-12-30T16:37:55.844Z,9.80
2018-12-30T16:40:36.532Z,9.50
2018-12-30T16:46:15.119Z,9.50
2018-12-30T16:48:56.147Z,9.20
2018-12-30T16:51:36.854Z,8.80
2018-12-30T16:54:17.790Z,8.90
2018-12-30T16:56:58.636Z,8.80
2018-12-30T16:59:39.380Z,8.70
2018-12-30T17:02:20.158Z,8.10
2018-12-30T17:05:00.994Z,7.80
2018-12-30T17:07:41.489Z,7.60
2018-12-30T17:10:22.091Z,7.60
2018-12-30T17:13:02.509Z,7.40
2018-12-30T17:15:43.057Z,7.40
2018-12-30T17:18:23.570Z,7.50
2018-12-30T17:21:04.425Z,7.40
2018-12-30T17:23:45.201Z,7.40
2018-12-30T17:26:25.854Z,7.30
2018-12-30T17:29:06.727Z,7.30
2018-12-30T17:31:47.512Z,7.30
2018-12-30T17:34:28.230Z,7.20
2018-12-30T17:37:08.792Z,7.10
2018-12-30T17:39:49.702Z,7.20
2018-12-30T17:42:30.694Z,7.20
2018-12-30T17:45:11.410Z,7.10
2018-12-30T17:47:51.770Z,7.10
2018-12-30T17:50:32.454Z,7.20
2018-12-30T17:53:13.299Z,7.30
2018-12-30T17:55:53.961Z,7.20
2018-12-30T17:58:34.428Z,7.20
2018-12-30T18:01:14.559Z,7.10
2018-12-30T18:03:55.241Z,7.10
2018-12-30T18:06:35.911Z,7.30
2018-12-30T18:09:16.864Z,7.30
2018-12-30T18:11:57.894Z,7.20
2018-12-30T18:14:38.817Z,7.30
2018-12-30T18:17:19.286Z,7.30
2018-12-30T18:19:59.906Z,7.30
2018-12-30T18:22:40.326Z,7.30
2018-12-30T18:25:22.825Z,7.30
2018-12-30T18:28:03.695Z,8.80
2018-12-30T18:30:44.812Z,7.30
2018-12-30T18:33:25.797Z,7.20
2018-12-30T18:36:06.482Z,7.30
2018-12-30T18:38:46.885Z,7.30
2018-12-30T18:41:27.517Z,7.30
2018-12-30T18:44:08.141Z,7.30
2018-12-30T18:46:48.773Z,7.30
2018-12-30T18:49:29.719Z,7.40
2018-12-30T18:52:09.992Z,7.50
2018-12-30T18:54:50.949Z,7.40
2018-12-30T18:57:31.407Z,7.40
2018-12-30T19:00:12.104Z,7.30
2018-12-30T19:02:52.933Z,7.40
2018-12-30T19:05:33.589Z,7.40
2018-12-30T19:08:14.223Z,7.30
2018-12-30T19:10:54.825Z,7.80
2018-12-30T19:13:35.451Z,7.80
2018-12-30T19:16:16.341Z,7.80
2018-12-30T19:18:57.141Z,7.50
2018-12-30T19:21:37.834Z,7.40
2018-12-30T19:24:18.642Z,7.30
2018-12-30T19:26:59.177Z,7.40
2018-12-30T19:29:39.785Z,7.40
2018-12-30T19:32:20.580Z,7.30
2018-12-30T19:35:01.389Z,7.30
2018-12-30T19:37:42.101Z,7.40
2018-12-30T19:40:22.544Z,7.40
2018-12-30T19:43:03.076Z,7.50
2018-12-30T19:45:43.629Z,7.50
2018-12-30T19:48:24.073Z,7.40
2018-12-30T19:51:05.063Z,7.40
2018-12-30T19:53:45.841Z,7.40
2018-12-30T19:56:26.293Z,7.50
2018-12-30T19:59:07.095Z,7.40
2018-12-30T20:01:47.737Z,7.40
2018-12-30T20:04:28.584Z,7.40
2018-12-30T20:07:08.765Z,7.40
2018-12-30T20:09:49.655Z,7.40
2018-12-30T20:12:30.225Z,7.40
2018-12-30T20:15:11.346Z,7.40
2018-12-30T20:17:52.329Z,7.30
2018-12-30T20:20:32.978Z,7.40
2018-12-30T20:23:13.846Z,7.30
2018-12-30T20:25:54.323Z,7.40
2018-12-30T20:28:35.361Z,7.40
2018-12-30T20:31:19.197Z,7.40
2018-12-30T20:33:59.840Z,7.30
2018-12-30T20:36:40.365Z,7.40
2018-12-30T20:39:20.837Z,7.30
2018-12-30T20:42:01.466Z,7.40
2018-12-30T20:44:42.033Z,7.40
2018-12-30T20:47:23.624Z,7.30
2018-12-30T20:50:04.359Z,7.20
2018-12-30T20:52:45.270Z,7.40
2018-12-30T20:55:25.808Z,7.40
2018-12-30T20:58:06.550Z,7.30
2018-12-30T21:00:47.298Z,7.20
2018-12-30T21:03:27.791Z,7.20
2018-12-30T21:06:08.653Z,7.20
2018-12-30T21:08:50.177Z,7.20
2018-12-30T21:11:31.262Z,7.10
2018-12-30T21:14:12.071Z,7.10
2018-12-30T21:16:52.613Z,7.20
2018-12-30T21:19:33.748Z,7.10
2018-12-30T21:22:14.113Z,7.10
2018-12-30T21:24:55.027Z,7.20
2018-12-30T21:27:35.744Z,7.10
2018-12-30T21:30:16.401Z,7.20
2018-12-30T21:32:56.830Z,7.20
2018-12-30T21:35:37.457Z,7.20
2018-12-30T21:38:18.062Z,7.20
2018-12-30T21:40:58.649Z,7.20
2018-12-30T21:43:39.137Z,7.80
2018-12-30T21:49:32.799Z,7.70
2018-12-30T21:52:13.569Z,7.80
2018-12-30T21:54:54.628Z,7.80
2018-12-30T21:57:35.406Z,7.70
2018-12-30T22:00:15.948Z,7.40
2018-12-30T22:02:56.751Z,7.40
2018-12-30T22:05:37.696Z,7.30
2018-12-30T22:08:18.275Z,7.30
2018-12-30T22:10:58.965Z,7.10
2018-12-30T22:13:39.548Z,7.10
2018-12-30T22:16:20.209Z,7.10
2018-12-30T22:19:00.740Z,7.10
2018-12-30T22:24:23.808Z,7.10
2018-12-30T22:27:04.598Z,7.20
2018-12-30T22:29:44.857Z,7.20
2018-12-30T22:32:25.908Z,7.30
2018-12-30T22:35:06.353Z,7.20
2018-12-30T22:37:47.049Z,7.30
2018-12-30T22:40:27.813Z,6.00
2018-12-30T22:43:08.525Z,7.20
2018-12-30T22:45:49.007Z,7.20
2018-12-30T22:48:29.381Z,7.20
2018-12-30T22:51:09.928Z,7.20
2018-12-30T22:53:50.493Z,7.10
2018-12-30T22:56:30.954Z,7.10
2018-12-30T22:59:11.436Z,7.10
2018-12-30T23:01:52.296Z,7.10
2018-12-30T23:04:32.975Z,7.10
2018-12-30T23:07:13.568Z,7.20
2018-12-30T23:09:54.673Z,7.20
2018-12-30T23:12:35.150Z,7.20
2018-12-30T23:15:15.793Z,7.30
2018-12-30T23:17:56.433Z,7.20
2018-12-30T23:20:37.337Z,7.20
2018-12-30T23:23:17.841Z,7.20
2018-12-30T23:25:58.165Z,7.30
2018-12-30T23:28:39.037Z,7.10
2018-12-30T23:31:19.811Z,7.30
2018-12-30T23:34:00.545Z,7.20
2018-12-30T23:36:40.855Z,7.20
2018-12-30T23:39:21.609Z,7.30
2018-12-30T23:42:02.162Z,7.40
2018-12-30T23:44:42.893Z,7.40
2018-12-30T23:47:23.795Z,7.50
2018-12-30T23:50:04.336Z,7.60
2018-12-30T23:52:45.246Z,7.60
2018-12-30T23:55:25.614Z,7.50
2018-12-30T23:58:06.233Z,7.50
